PWSweather.com
Personal Weather Stations
Station Observations
WISCHPK61
Green Bay Schmitt Park, Green Bay, WI 54311

Green Bay Schmitt ParkGreen Bay, WI 54311

Lat: 44.514277, Lon: -87.935067

Elevation: 735

Station Type: Acu Rite Pro Weather Center model 02032C

http://greenbayweathercam.com

High Low Average
Temperature 82.5°F28.1°C 68.4°F20.2°C 74.0°F23.3°C
Dew Point 82.1°F27.8°C 68.1°F20.1°C 73.7°F23.2°C
Winds Calm Calm Calm Calm Calm SWCalm SW
Wind Gusts 1.2 mph1.9 kmh -- --
Humidity 99% 99% 99%
Pressure 29.28 in991.5 mb 29.22 in989.5 mb -
Precipitation 0.00 in0.0 mm - -
Hour Temp Dew Point Humidity Winds Wind Gusts Pressure Precip Precip Rate Daily Precip Total
12:00 AM 68.4°F20.2°C 68.1°F20.1°C 99% Calm Calm -- 29.25 in990.5 mb - 0.00 in0.0 mm 0.00 in0.0 mm
01:00 AM 68.7°F20.4°C 68.4°F20.2°C 99% Calm Calm -- 29.25 in990.5 mb - 0.00 in0.0 mm 0.00 in0.0 mm
02:00 AM 68.9°F20.5°C 68.6°F20.3°C 99% Calm Calm -- 29.24 in990.2 mb - 0.00 in0.0 mm 0.00 in0.0 mm
03:00 AM 69.6°F20.9°C 69.3°F20.7°C 99% Calm Calm -- 29.24 in990.2 mb - 0.00 in0.0 mm 0.00 in0.0 mm
04:00 AM 69.6°F20.9°C 69.3°F20.7°C 99% Calm Calm -- 29.25 in990.5 mb - 0.00 in0.0 mm 0.00 in0.0 mm
05:00 AM 69.6°F20.9°C 69.3°F20.7°C 99% Calm Calm -- 29.25 in990.5 mb - 0.00 in0.0 mm 0.00 in0.0 mm
06:00 AM 68.5°F20.3°C 68.2°F20.1°C 99% Calm Calm -- 29.25 in990.5 mb - 0.00 in0.0 mm 0.00 in0.0 mm
07:00 AM 68.4°F20.2°C 68.1°F20.1°C 99% Calm Calm -- 29.26 in990.9 mb - 0.00 in0.0 mm 0.00 in0.0 mm
08:00 AM 70.7°F21.5°C 70.4°F21.3°C 99% Calm Calm -- 29.27 in991.2 mb - 0.00 in0.0 mm 0.00 in0.0 mm
09:00 AM 72.9°F22.7°C 72.6°F22.6°C 99% Calm Calm -- 29.27 in991.2 mb - 0.00 in0.0 mm 0.00 in0.0 mm
10:00 AM 75.2°F24.0°C 74.9°F23.8°C 99% Calm Calm -- 29.27 in991.2 mb - 0.00 in0.0 mm 0.00 in0.0 mm
11:00 AM 75.7°F24.3°C 75.4°F24.1°C 99% Calm Calm -- 29.28 in991.5 mb - 0.00 in0.0 mm 0.00 in0.0 mm
12:00 PM 76.3°F24.6°C 76.0°F24.4°C 99% Calm Calm -- 29.27 in991.2 mb - 0.00 in0.0 mm 0.00 in0.0 mm
01:00 PM 78.8°F26.0°C 78.5°F25.8°C 99% Calm Calm -- 29.27 in991.2 mb - 0.00 in0.0 mm 0.00 in0.0 mm
02:00 PM 82.5°F28.1°C 82.1°F27.8°C 99% Calm Calm -- 29.26 in990.9 mb - 0.00 in0.0 mm 0.00 in0.0 mm
03:00 PM 81.3°F27.4°C 81.0°F27.2°C 99% Calm Calm 1.2 mph1.9 kmh 29.24 in990.2 mb - 0.00 in0.0 mm 0.00 in0.0 mm
04:00 PM 79.9°F26.6°C 79.6°F26.4°C 99% Calm Calm -- 29.24 in990.2 mb - 0.00 in0.0 mm 0.00 in0.0 mm
05:00 PM 78.6°F25.9°C 78.3°F25.7°C 99% Calm Calm -- 29.23 in989.8 mb - 0.00 in0.0 mm 0.00 in0.0 mm
06:00 PM 77.5°F25.3°C 77.2°F25.1°C 99% Calm Calm -- 29.22 in989.5 mb - 0.00 in0.0 mm 0.00 in0.0 mm
07:00 PM 77.2°F25.1°C 76.9°F24.9°C 99% Calm Calm -- 29.23 in989.8 mb - 0.00 in0.0 mm 0.00 in0.0 mm
08:00 PM 75.4°F24.1°C 75.1°F23.9°C 99% Calm Calm -- 29.24 in990.2 mb - 0.00 in0.0 mm 0.00 in0.0 mm
09:00 PM 73.8°F23.2°C 73.5°F23.1°C 99% Calm Calm -- 29.25 in990.5 mb - 0.00 in0.0 mm 0.00 in0.0 mm
10:00 PM 73.0°F22.8°C 72.7°F22.6°C 99% Calm Calm -- 29.26 in990.9 mb - 0.00 in0.0 mm 0.00 in0.0 mm
11:00 PM 72.3°F22.4°C 72.0°F22.2°C 99% Calm Calm -- 29.26 in990.9 mb - 0.00 in0.0 mm 0.00 in0.0 mm